createdAt,value
2023-05-23T00:01:07.245Z,100923.94
2023-05-23T00:03:35.496Z,100916.28
2023-05-23T00:06:02.567Z,100913.84
2023-05-23T00:08:29.008Z,100912.25
2023-05-23T00:10:55.537Z,100909.81
2023-05-23T00:13:22.225Z,100913.06
2023-05-23T00:15:48.966Z,100908.22
2023-05-23T00:18:16.417Z,100915.88
2023-05-23T00:20:43.446Z,100920.69
2023-05-23T00:23:11.012Z,100916.66
2023-05-23T00:25:38.319Z,100921.94
2023-05-23T00:28:05.434Z,100925.56
2023-05-23T00:30:34.121Z,100927.16
2023-05-23T00:33:01.353Z,100930.78
2023-05-23T00:35:28.075Z,100929.19
2023-05-23T00:37:55.753Z,100935.63
2023-05-23T00:40:23.437Z,100933.22
2023-05-23T00:42:49.918Z,100938.84
2023-05-23T00:45:17.322Z,100941.69
2023-05-23T00:47:45.838Z,100941.69
2023-05-23T00:50:12.951Z,100940.06
2023-05-23T00:52:39.532Z,100942.13
2023-05-23T00:55:06.874Z,100940.09
2023-05-23T00:57:40.575Z,100948.56
2023-05-23T01:00:13.666Z,100952.59
2023-05-23T01:02:51.396Z,100946.94
2023-05-23T01:05:20.955Z,100961.44
2023-05-23T01:07:49.314Z,100960.63
2023-05-23T01:10:20.387Z,100962.63
2023-05-23T01:12:57.974Z,100961.78
2023-05-23T01:15:33.268Z,100952.94
2023-05-23T01:18:10.972Z,100952.47
2023-05-23T01:20:46.013Z,100960.09
2023-05-23T01:23:47.459Z,100954.41
2023-05-23T01:26:19.624Z,100960.84
2023-05-23T01:28:50.258Z,100957.19
2023-05-23T01:31:18.666Z,100958.41
2023-05-23T01:33:46.559Z,100957.56
2023-05-23T01:36:15.198Z,100959.19
2023-05-23T01:38:41.752Z,100966.03
2023-05-23T01:41:08.456Z,100960.00
2023-05-23T01:43:34.960Z,100961.56
2023-05-23T01:46:03.013Z,100969.19
2023-05-23T01:48:31.230Z,100965.56
2023-05-23T01:50:58.986Z,100974.41
2023-05-23T01:53:26.492Z,100977.63
2023-05-23T01:55:53.038Z,100976.81
2023-05-23T01:58:19.764Z,100976.00
2023-05-23T02:00:46.613Z,100981.66
2023-05-23T02:03:13.337Z,100985.28
2023-05-23T02:05:40.365Z,100978.03
2023-05-23T02:08:07.272Z,100975.22
2023-05-23T02:10:33.982Z,100977.22
2023-05-23T02:13:00.460Z,100976.38
2023-05-23T02:15:27.136Z,100973.56
2023-05-23T02:17:53.838Z,100977.22
2023-05-23T02:20:20.463Z,100977.22
2023-05-23T02:22:46.832Z,100973.56
2023-05-23T02:25:13.242Z,100983.66
2023-05-23T02:27:39.940Z,100974.00
2023-05-23T02:30:09.238Z,100981.69
2023-05-23T02:32:37.579Z,100982.09
2023-05-23T02:35:04.388Z,100980.47
2023-05-23T02:37:30.740Z,100979.31
2023-05-23T02:39:57.218Z,100976.88
2023-05-23T02:42:23.846Z,100980.09
2023-05-23T02:44:50.338Z,100976.47
2023-05-23T02:47:16.733Z,100984.13
2023-05-23T02:49:43.316Z,100981.31
2023-05-23T02:52:09.937Z,100987.75
2023-05-23T02:54:36.335Z,100984.13
2023-05-23T02:57:02.784Z,100987.75
2023-05-23T02:59:29.148Z,100984.13
2023-05-23T03:01:55.828Z,100981.31
2023-05-23T03:04:23.995Z,100986.94
2023-05-23T03:06:54.447Z,100977.69
2023-05-23T03:09:21.618Z,100990.56
2023-05-23T03:11:48.447Z,100982.97
2023-05-23T03:14:15.076Z,100988.59
2023-05-23T03:16:41.969Z,100992.59
2023-05-23T03:19:08.736Z,100986.16
2023-05-23T03:21:35.718Z,100987.34
2023-05-23T03:24:02.341Z,100986.56
2023-05-23T03:26:28.987Z,100988.56
2023-05-23T03:28:56.242Z,100985.75
2023-05-23T03:31:22.954Z,100981.72
2023-05-23T03:33:49.575Z,100993.81
2023-05-23T03:36:16.232Z,100987.34
2023-05-23T03:38:42.868Z,100994.59
2023-05-23T03:41:09.556Z,100992.59
2023-05-23T03:43:36.462Z,100996.22
2023-05-23T03:46:03.162Z,100994.59
2023-05-23T03:48:30.654Z,100996.63
2023-05-23T03:50:57.209Z,100997.03
2023-05-23T03:53:23.809Z,100999.41
2023-05-23T03:55:50.799Z,101005.84
2023-05-23T03:58:17.484Z,101015.16
2023-05-23T04:00:44.367Z,101012.31
2023-05-23T04:03:12.169Z,101015.16
2023-05-23T04:05:38.879Z,101025.22
2023-05-23T04:08:07.155Z,101023.59
2023-05-23T04:10:33.729Z,101028.41
2023-05-23T04:13:00.310Z,101024.41
2023-05-23T04:15:28.175Z,101035.69
2023-05-23T04:17:55.122Z,101038.50
2023-05-23T04:22:49.502Z,101034.44
2023-05-23T04:25:18.801Z,101032.00
2023-05-23T04:27:45.290Z,101030.34
2023-05-23T04:30:12.441Z,101031.94
2023-05-23T04:32:39.016Z,101029.50
2023-05-23T04:35:05.885Z,101034.69
2023-05-23T04:37:33.296Z,101052.81
2023-05-23T04:40:03.207Z,101048.75
2023-05-23T04:42:29.770Z,101049.56
2023-05-23T04:44:59.042Z,101054.75
2023-05-23T04:47:28.015Z,101055.16
2023-05-23T04:49:56.040Z,101052.72
2023-05-23T04:52:22.813Z,101057.16
2023-05-23T04:54:49.650Z,101054.75
2023-05-23T04:57:16.925Z,101061.53
2023-05-23T04:59:43.404Z,101059.53
2023-05-23T05:02:09.765Z,101064.75
2023-05-23T05:04:36.637Z,101063.16
2023-05-23T05:07:04.508Z,101065.16
2023-05-23T05:09:31.526Z,101059.53
2023-05-23T05:11:59.268Z,101067.59
2023-05-23T05:14:27.408Z,101061.53
2023-05-23T05:16:57.885Z,101073.63
2023-05-23T05:19:25.323Z,101068.00
2023-05-23T05:21:52.438Z,101073.63
2023-05-23T05:24:21.045Z,101080.09
2023-05-23T05:26:48.365Z,101086.53
2023-05-23T05:29:15.119Z,101084.56
2023-05-23T05:31:41.694Z,101086.94
2023-05-23T05:34:08.134Z,101089.72
2023-05-23T05:36:34.826Z,101088.09
2023-05-23T05:39:01.237Z,101093.34
2023-05-23T05:41:27.884Z,101098.53
2023-05-23T05:43:54.320Z,101103.75
2023-05-23T05:46:21.029Z,101102.94
2023-05-23T05:48:47.550Z,101097.31
2023-05-23T05:51:13.950Z,101100.13
2023-05-23T05:53:40.401Z,101103.75
2023-05-23T05:56:09.125Z,101108.59
2023-05-23T05:58:35.852Z,101112.22
2023-05-23T06:01:02.329Z,101116.22
2023-05-23T06:03:28.928Z,101111.78
2023-05-23T06:05:55.797Z,101116.59
2023-05-23T06:08:22.386Z,101125.03
2023-05-23T06:10:48.825Z,101121.06
2023-05-23T06:13:15.499Z,101121.47
2023-05-23T06:15:41.885Z,101134.78
2023-05-23T06:18:08.581Z,101122.31
2023-05-23T06:20:35.068Z,101133.63
2023-05-23T06:23:01.862Z,101134.44
2023-05-23T06:25:28.290Z,101127.59
2023-05-23T06:27:55.712Z,101134.84
2023-05-23T06:30:23.165Z,101133.66
2023-05-23T06:32:49.902Z,101137.28
2023-05-23T06:35:17.922Z,101138.47
2023-05-23T06:37:45.780Z,101133.25
2023-05-23T06:40:14.638Z,101141.28
2023-05-23T06:42:41.696Z,101135.25
2023-05-23T06:45:08.698Z,101142.09
2023-05-23T06:47:35.443Z,101148.91
2023-05-23T06:50:03.060Z,101149.69
2023-05-23T06:52:29.485Z,101144.41
2023-05-23T06:54:56.137Z,101155.28
2023-05-23T06:57:22.630Z,101158.06
2023-05-23T06:59:49.522Z,101161.22
2023-05-23T07:02:16.007Z,101161.59
2023-05-23T07:04:42.488Z,101168.81
2023-05-23T07:07:10.098Z,101171.22
2023-05-23T07:09:38.631Z,101180.84
2023-05-23T07:12:05.392Z,101180.03
2023-05-23T07:14:32.040Z,101181.28
2023-05-23T07:16:58.543Z,101183.66
2023-05-23T07:19:25.068Z,101195.28
2023-05-23T07:21:51.751Z,101185.59
2023-05-23T07:24:19.325Z,101196.88
2023-05-23T07:26:46.138Z,101204.50
2023-05-23T07:29:12.557Z,101209.69
2023-05-23T07:31:38.999Z,101202.44
2023-05-23T07:34:05.715Z,101206.06
2023-05-23T07:36:34.188Z,101212.09
2023-05-23T07:39:01.588Z,101216.94
2023-05-23T07:41:28.042Z,101222.13
2023-05-23T07:43:54.533Z,101217.69
2023-05-23T07:46:22.958Z,101228.13
2023-05-23T07:48:49.584Z,101233.78
2023-05-23T07:51:21.183Z,101233.38
2023-05-23T07:53:47.667Z,101235.03
2023-05-23T07:56:14.368Z,101235.38
2023-05-23T07:58:40.873Z,101240.22
2023-05-23T08:01:08.294Z,101245.03
2023-05-23T08:03:34.898Z,101243.41
2023-05-23T08:06:01.489Z,101242.59
2023-05-23T08:08:27.902Z,101249.44
2023-05-23T08:10:54.456Z,101253.44
2023-05-23T08:13:20.931Z,101252.63
2023-05-23T08:15:47.588Z,101255.81
2023-05-23T08:18:14.601Z,101254.63
2023-05-23T08:20:42.476Z,101257.44
2023-05-23T08:23:09.576Z,101264.69
2023-05-23T08:25:35.962Z,101263.53
2023-05-23T08:28:02.362Z,101265.94
2023-05-23T08:30:29.404Z,101275.22
2023-05-23T08:32:57.159Z,101263.94
2023-05-23T08:35:24.519Z,101263.94
2023-05-23T08:37:52.215Z,101266.75
2023-05-23T08:40:21.311Z,101272.78
2023-05-23T08:42:49.242Z,101269.16
2023-05-23T08:45:17.028Z,101275.59
2023-05-23T08:47:45.346Z,101281.59
2023-05-23T08:50:18.106Z,101286.81
2023-05-23T08:53:00.682Z,101286.38
2023-05-23T08:55:29.159Z,101296.44
2023-05-23T08:57:59.253Z,101292.44
2023-05-23T09:00:27.264Z,101292.81
2023-05-23T09:02:54.828Z,101297.66
2023-05-23T09:05:22.016Z,101304.09
2023-05-23T09:07:51.277Z,101307.72
2023-05-23T09:10:20.639Z,101310.88
2023-05-23T09:12:47.378Z,101312.09
2023-05-23T09:15:14.736Z,101324.16
2023-05-23T09:17:41.374Z,101314.91
2023-05-23T09:20:15.287Z,101326.56
2023-05-23T09:22:45.853Z,101330.19
2023-05-23T09:25:12.319Z,101328.56
2023-05-23T09:27:38.934Z,101330.94
2023-05-23T09:30:10.890Z,101338.53
2023-05-23T09:32:39.091Z,101331.22
2023-05-23T09:35:07.709Z,101340.41
2023-05-23T09:37:39.571Z,101341.16
2023-05-23T09:40:13.633Z,101351.19
2023-05-23T09:42:44.476Z,101356.25
2023-05-23T09:45:13.898Z,101360.19
2023-05-23T09:47:49.258Z,101353.63
2023-05-23T09:50:15.640Z,101356.81
2023-05-23T09:52:42.295Z,101356.38
2023-05-23T09:55:09.261Z,101360.75
2023-05-23T09:57:37.865Z,101371.59
2023-05-23T10:00:11.262Z,101366.75
2023-05-23T10:03:12.404Z,101366.75
2023-05-23T10:05:48.202Z,101365.94
2023-05-23T10:08:39.174Z,101375.13
2023-05-23T10:11:14.536Z,101362.25
2023-05-23T10:13:45.930Z,101360.63
2023-05-23T10:16:17.120Z,101375.88
2023-05-23T10:18:49.038Z,101367.81
2023-05-23T10:21:20.928Z,101383.47
2023-05-23T10:23:48.352Z,101380.66
2023-05-23T10:26:15.946Z,101386.63
2023-05-23T10:28:42.801Z,101381.38
2023-05-23T10:31:11.748Z,101392.63
2023-05-23T10:33:43.924Z,101392.97
2023-05-23T10:36:19.336Z,101394.25
2023-05-23T10:38:56.061Z,101395.06
2023-05-23T10:41:41.561Z,101402.69
2023-05-23T10:44:25.313Z,101398.69
2023-05-23T10:46:54.229Z,101404.38
2023-05-23T10:49:21.553Z,101397.13
2023-05-23T10:51:54.190Z,101407.13
2023-05-23T10:54:21.353Z,101409.94
2023-05-23T10:56:48.475Z,101407.94
2023-05-23T10:59:23.294Z,101405.97
2023-05-23T11:01:52.798Z,101413.28
2023-05-23T11:04:27.559Z,101409.69
2023-05-23T11:06:57.617Z,101409.84
2023-05-23T11:09:24.218Z,101406.34
2023-05-23T11:11:50.664Z,101404.47
2023-05-23T11:14:17.031Z,101409.47
2023-05-23T11:16:49.316Z,101401.16
2023-05-23T11:19:18.845Z,101414.16
2023-05-23T11:22:06.019Z,101411.84
2023-05-23T11:24:52.371Z,101408.78
2023-05-23T11:27:35.734Z,101416.91
2023-05-23T11:30:16.158Z,101420.59
2023-05-23T11:32:56.198Z,101421.47
2023-05-23T11:35:23.240Z,101416.28
2023-05-23T11:37:49.995Z,101412.25
2023-05-23T11:40:39.614Z,101414.63
2023-05-23T11:43:20.076Z,101422.34
2023-05-23T11:45:47.022Z,101420.84
2023-05-23T11:48:16.703Z,101427.72
2023-05-23T11:50:52.243Z,101427.72
2023-05-23T11:53:25.929Z,101441.41
2023-05-23T11:55:55.468Z,101440.25
2023-05-23T11:58:23.686Z,101440.59
2023-05-23T12:00:50.078Z,101446.22
2023-05-23T12:03:16.648Z,101449.81
2023-05-23T12:05:45.259Z,101452.56
2023-05-23T12:08:13.820Z,101461.03
2023-05-23T12:10:48.653Z,101455.00
2023-05-23T12:13:15.104Z,101461.50
2023-05-23T12:15:41.826Z,101453.06
2023-05-23T12:18:08.908Z,101457.88
2023-05-23T12:20:36.156Z,101456.69
2023-05-23T12:23:06.211Z,101458.31
2023-05-23T12:25:41.944Z,101458.38
2023-05-23T12:28:10.696Z,101468.56
2023-05-23T12:30:44.269Z,101461.34
2023-05-23T12:33:12.218Z,101458.19
2023-05-23T12:35:43.489Z,101455.03
2023-05-23T12:38:10.023Z,101449.44
2023-05-23T12:40:36.642Z,101454.69
2023-05-23T12:43:03.089Z,101447.06
2023-05-23T12:45:37.057Z,101451.88
2023-05-23T12:48:04.337Z,101442.69
2023-05-23T12:50:31.477Z,101441.19
2023-05-23T12:52:58.835Z,101436.03
2023-05-23T12:55:25.319Z,101440.94
2023-05-23T12:57:53.038Z,101441.06
2023-05-23T13:00:20.380Z,101438.72
2023-05-23T13:02:46.903Z,101444.38
2023-05-23T13:05:13.631Z,101434.44
2023-05-23T13:07:40.357Z,101437.28
2023-05-23T13:10:07.365Z,101439.75
2023-05-23T13:12:34.717Z,101441.81
2023-05-23T13:15:01.466Z,101443.88
2023-05-23T13:17:28.022Z,101435.44
2023-05-23T13:19:54.733Z,101435.13
2023-05-23T13:22:21.182Z,101438.75
2023-05-23T13:24:47.936Z,101431.59
2023-05-23T13:27:16.271Z,101431.25
2023-05-23T13:29:43.112Z,101435.34
2023-05-23T13:32:09.768Z,101421.25
2023-05-23T13:34:39.456Z,101430.19
2023-05-23T13:37:06.055Z,101434.72
2023-05-23T13:39:32.497Z,101435.97
2023-05-23T13:41:59.180Z,101435.63
2023-05-23T13:44:25.961Z,101436.47
2023-05-23T13:46:52.419Z,101440.16
2023-05-23T13:49:19.076Z,101436.56
2023-05-23T13:51:45.566Z,101438.59
2023-05-23T13:54:13.215Z,101446.28
2023-05-23T13:56:40.383Z,101438.25
2023-05-23T13:59:07.056Z,101437.03
2023-05-23T14:01:33.573Z,101434.22
2023-05-23T14:04:00.413Z,101430.56
2023-05-23T14:06:26.899Z,101431.38
2023-05-23T14:08:53.507Z,101430.56
2023-05-23T14:11:19.905Z,101438.66
2023-05-23T14:13:46.338Z,101438.66
2023-05-23T14:16:12.839Z,101436.63
2023-05-23T14:18:39.294Z,101437.84
2023-05-23T14:21:06.145Z,101434.22
2023-05-23T14:23:32.683Z,101432.59
2023-05-23T14:25:59.462Z,101430.16
2023-05-23T14:28:27.475Z,101427.34
2023-05-23T14:30:55.502Z,101430.97
2023-05-23T14:33:22.281Z,101432.59
2023-05-23T14:35:49.351Z,101439.84
2023-05-23T14:38:15.767Z,101435.03
2023-05-23T14:40:44.087Z,101434.66
2023-05-23T14:43:11.466Z,101427.78
2023-05-23T14:45:38.323Z,101434.66
2023-05-23T14:48:05.824Z,101433.44
2023-05-23T14:50:32.461Z,101435.50
2023-05-23T14:52:59.678Z,101432.31
2023-05-23T14:55:26.282Z,101437.56
2023-05-23T14:57:52.685Z,101446.47
2023-05-23T15:00:19.545Z,101449.72
2023-05-23T15:02:46.627Z,101447.28
2023-05-23T15:05:13.196Z,101435.56
2023-05-23T15:07:40.266Z,101443.63
2023-05-23T15:10:08.549Z,101441.59
2023-05-23T15:12:35.041Z,101438.41
2023-05-23T15:15:04.701Z,101444.47
2023-05-23T15:17:33.762Z,101440.41
2023-05-23T15:20:06.037Z,101444.91
2023-05-23T15:22:39.347Z,101437.66
2023-05-23T15:25:08.010Z,101446.94
2023-05-23T15:27:34.521Z,101442.09
2023-05-23T15:30:01.841Z,101443.69
2023-05-23T15:32:28.640Z,101445.72
2023-05-23T15:34:55.123Z,101438.03
2023-05-23T15:37:21.582Z,101433.59
2023-05-23T15:39:51.316Z,101436.03
2023-05-23T15:42:17.668Z,101430.00
2023-05-23T15:44:44.349Z,101440.13
2023-05-23T15:47:11.223Z,101441.75
2023-05-23T15:49:37.826Z,101439.72
2023-05-23T15:52:04.506Z,101442.50
2023-05-23T15:54:31.109Z,101443.69
2023-05-23T15:56:57.535Z,101448.53
2023-05-23T15:59:24.205Z,101456.53
2023-05-23T16:01:50.678Z,101444.78
2023-05-23T16:04:17.263Z,101455.25
2023-05-23T16:06:43.832Z,101446.75
2023-05-23T16:09:13.300Z,101450.34
2023-05-23T16:11:39.962Z,101448.28
2023-05-23T16:14:06.628Z,101453.53
2023-05-23T16:16:33.098Z,101455.13
2023-05-23T16:18:59.948Z,101445.44
2023-05-23T16:21:26.493Z,101443.75
2023-05-23T16:23:53.135Z,101443.28
2023-05-23T16:26:19.857Z,101447.72
2023-05-23T16:28:46.402Z,101453.78
2023-05-23T16:31:14.990Z,101450.13
2023-05-23T16:33:42.089Z,101440.81
2023-05-23T16:36:08.854Z,101447.72
2023-05-23T16:38:35.564Z,101440.06
2023-05-23T16:41:01.986Z,101454.19
2023-05-23T16:43:28.631Z,101442.88
2023-05-23T16:45:55.083Z,101438.44
2023-05-23T16:48:22.305Z,101440.81
2023-05-23T16:50:48.879Z,101452.13
2023-05-23T16:53:15.592Z,101447.31
2023-05-23T16:55:42.289Z,101447.69
2023-05-23T16:58:08.861Z,101461.00
2023-05-23T17:00:35.294Z,101452.91
2023-05-23T17:03:02.370Z,101461.41
2023-05-23T17:05:28.941Z,101453.28
2023-05-23T17:07:55.396Z,101455.28
2023-05-23T17:10:23.682Z,101458.06
2023-05-23T17:12:50.184Z,101457.63
2023-05-23T17:15:18.352Z,101463.25
2023-05-23T17:17:44.902Z,101464.03
2023-05-23T17:20:11.968Z,101465.63
2023-05-23T17:22:38.489Z,101456.72
2023-05-23T17:25:06.455Z,101457.50
2023-05-23T17:27:33.746Z,101461.50
2023-05-23T17:30:00.359Z,101467.13
2023-05-23T17:32:28.088Z,101462.25
2023-05-23T17:34:54.547Z,101463.00
2023-05-23T17:37:21.190Z,101462.16
2023-05-23T17:39:50.708Z,101460.50
2023-05-23T17:42:20.390Z,101460.88
2023-05-23T17:44:47.034Z,101460.81
2023-05-23T17:47:14.082Z,101462.84
2023-05-23T17:49:41.798Z,101457.97
2023-05-23T17:52:09.971Z,101456.38
2023-05-23T17:54:37.756Z,101467.19
2023-05-23T17:57:05.328Z,101465.97
2023-05-23T17:59:32.952Z,101469.56
2023-05-23T18:02:00.480Z,101473.13
2023-05-23T18:04:26.958Z,101465.81
2023-05-23T18:06:53.666Z,101475.41
2023-05-23T18:09:20.616Z,101478.19
2023-05-23T18:11:47.302Z,101476.94
2023-05-23T18:14:13.732Z,101477.28
2023-05-23T18:16:40.389Z,101476.41
2023-05-23T18:19:06.884Z,101472.72
2023-05-23T18:21:34.940Z,101479.94
2023-05-23T18:24:02.986Z,101479.50
2023-05-23T18:26:29.553Z,101483.53
2023-05-23T18:28:56.068Z,101477.47
2023-05-23T18:31:22.545Z,101476.19
2023-05-23T18:33:51.445Z,101475.31
2023-05-23T18:36:17.988Z,101480.16
2023-05-23T18:38:45.803Z,101486.56
2023-05-23T18:41:14.714Z,101484.97
2023-05-23T18:43:41.645Z,101487.72
2023-05-23T18:46:08.084Z,101497.72
2023-05-23T18:48:35.939Z,101502.50
2023-05-23T18:51:02.825Z,101501.66
2023-05-23T18:53:29.347Z,101502.41
2023-05-23T18:55:55.895Z,101505.53
2023-05-23T18:58:22.321Z,101505.91
2023-05-23T19:00:49.033Z,101510.69
2023-05-23T19:03:16.748Z,101517.88
2023-05-23T19:05:43.282Z,101518.63
2023-05-23T19:08:09.709Z,101522.19
2023-05-23T19:10:36.418Z,101523.75
2023-05-23T19:13:03.732Z,101533.78
2023-05-23T19:15:30.359Z,101541.75
2023-05-23T19:17:57.018Z,101552.97
2023-05-23T19:20:23.705Z,101551.69
2023-05-23T19:22:51.728Z,101552.47
2023-05-23T19:25:19.083Z,101554.41
2023-05-23T19:27:45.630Z,101557.97
2023-05-23T19:30:12.246Z,101553.81
2023-05-23T19:32:38.771Z,101569.03
2023-05-23T19:35:08.260Z,101564.91
2023-05-23T19:37:34.755Z,101572.44
2023-05-23T19:40:01.749Z,101569.94
2023-05-23T19:42:28.309Z,101572.25
2023-05-23T19:44:54.780Z,101568.53
2023-05-23T19:47:21.145Z,101571.66
2023-05-23T19:49:47.768Z,101567.13
2023-05-23T19:52:14.514Z,101568.25
2023-05-23T19:54:41.022Z,101580.94
2023-05-23T19:57:07.761Z,101578.00
2023-05-23T19:59:34.243Z,101587.09
2023-05-23T20:02:00.980Z,101587.72
2023-05-23T20:04:29.374Z,101594.00
2023-05-23T20:06:56.140Z,101598.72
2023-05-23T20:09:23.500Z,101602.22
2023-05-23T20:11:50.296Z,101610.94
2023-05-23T20:14:16.669Z,101605.59
2023-05-23T20:16:43.337Z,101602.22
2023-05-23T20:19:10.207Z,101610.59
2023-05-23T20:21:36.852Z,101618.13
2023-05-23T20:24:03.389Z,101621.28
2023-05-23T20:26:29.809Z,101626.81
2023-05-23T20:28:56.202Z,101621.91
2023-05-23T20:31:22.924Z,101625.00
2023-05-23T20:33:49.823Z,101623.28
2023-05-23T20:36:19.569Z,101632.44
2023-05-23T20:38:46.670Z,101631.53
2023-05-23T20:41:14.059Z,101640.69
2023-05-23T20:43:41.026Z,101640.69
2023-05-23T20:46:09.356Z,101644.69
2023-05-23T20:48:35.983Z,101643.06
2023-05-23T20:51:05.542Z,101645.03
2023-05-23T20:53:32.196Z,101645.41
2023-05-23T20:55:58.984Z,101658.19
2023-05-23T20:58:25.406Z,101661.34
2023-05-23T21:00:52.410Z,101656.09
2023-05-23T21:03:19.427Z,101663.59
2023-05-23T21:05:46.080Z,101660.78
2023-05-23T21:08:12.472Z,101662.31
2023-05-23T21:10:38.919Z,101659.84
2023-05-23T21:13:05.526Z,101667.81
2023-05-23T21:15:32.158Z,101660.09
2023-05-23T21:17:58.908Z,101658.47
2023-05-23T21:20:26.186Z,101667.63
2023-05-23T21:22:52.619Z,101669.16
2023-05-23T21:25:19.071Z,101672.69
2023-05-23T21:27:45.599Z,101667.00
2023-05-23T21:30:12.718Z,101666.41
2023-05-23T21:32:39.129Z,101667.03
2023-05-23T21:35:06.315Z,101671.28
2023-05-23T21:37:32.948Z,101668.25
2023-05-23T21:39:59.301Z,101670.13
2023-05-23T21:42:26.051Z,101672.38
2023-05-23T21:44:52.821Z,101661.41
2023-05-23T21:47:21.426Z,101661.66
2023-05-23T21:49:48.121Z,101657.22
2023-05-23T21:52:14.888Z,101663.66
2023-05-23T21:54:41.506Z,101654.66
2023-05-23T21:57:07.876Z,101655.72
2023-05-23T21:59:34.227Z,101658.91
2023-05-23T22:02:01.022Z,101653.97
2023-05-23T22:04:28.167Z,101650.72
2023-05-23T22:06:54.617Z,101655.84
2023-05-23T22:09:21.135Z,101657.03
2023-05-23T22:11:47.796Z,101651.31
2023-05-23T22:14:14.419Z,101661.28
2023-05-23T22:16:41.005Z,101664.41
2023-05-23T22:19:10.065Z,101662.63
2023-05-23T22:21:36.763Z,101661.00
2023-05-23T22:24:03.651Z,101659.25
2023-05-23T22:26:30.422Z,101659.97
2023-05-23T22:28:57.057Z,101661.03
2023-05-23T22:31:23.879Z,101658.47
2023-05-23T22:33:51.183Z,101659.53
2023-05-23T22:36:17.607Z,101654.97
2023-05-23T22:38:44.162Z,101659.16
2023-05-23T22:41:10.920Z,101659.75
2023-05-23T22:43:37.636Z,101660.44
2023-05-23T22:46:04.180Z,101658.69
2023-05-23T22:48:33.637Z,101662.56
2023-05-23T22:51:03.633Z,101667.25
2023-05-23T22:53:30.407Z,101663.50
2023-05-23T22:55:56.976Z,101667.78
2023-05-23T22:58:23.651Z,101672.13
2023-05-23T23:00:50.476Z,101667.22
2023-05-23T23:03:17.029Z,101667.09
2023-05-23T23:05:44.550Z,101666.16
2023-05-23T23:08:11.910Z,101669.66
2023-05-23T23:10:38.455Z,101669.88
2023-05-23T23:13:05.057Z,101668.13
2023-05-23T23:15:33.689Z,101667.16
2023-05-23T23:18:00.422Z,101672.97
2023-05-23T23:20:27.566Z,101683.22
2023-05-23T23:22:54.010Z,101669.44
2023-05-23T23:25:20.755Z,101672.91
2023-05-23T23:27:47.189Z,101674.44
2023-05-23T23:30:13.741Z,101674.78
2023-05-23T23:32:40.444Z,101674.31
2023-05-23T23:35:07.396Z,101685.03
2023-05-23T23:37:34.026Z,101677.31
2023-05-23T23:40:00.559Z,101688.06
2023-05-23T23:42:28.166Z,101675.09
2023-05-23T23:44:54.686Z,101680.19
2023-05-23T23:47:21.102Z,101680.09
2023-05-23T23:49:48.065Z,101686.38
2023-05-23T23:52:14.880Z,101677.50
2023-05-23T23:54:41.482Z,101686.56
2023-05-23T23:57:13.463Z,101679.22
2023-05-23T23:59:41.419Z,101680.69
